createdAt,value
2019-05-30T00:08:26.242Z,3.27
2019-05-30T00:19:26.971Z,3.26
2019-05-30T00:30:27.291Z,3.26
2019-05-30T00:41:27.151Z,3.26
2019-05-30T00:52:24.911Z,3.26
2019-05-30T01:03:24.848Z,3.26
2019-05-30T01:14:26.271Z,3.25
2019-05-30T01:25:27.004Z,3.25
2019-05-30T01:36:28.945Z,3.25
2019-05-30T01:47:24.504Z,3.25
2019-05-30T01:58:25.316Z,3.25
2019-05-30T02:09:29.839Z,3.25
2019-05-30T02:20:30.424Z,3.25
2019-05-30T02:31:38.940Z,3.24
2019-05-30T02:42:35.109Z,3.24
2019-05-30T02:53:36.703Z,3.23
2019-05-30T03:04:41.262Z,3.23
2019-05-30T03:15:43.620Z,3.23
2019-05-30T03:26:46.097Z,3.23
2019-05-30T03:37:51.113Z,3.22
2019-05-30T03:48:48.807Z,3.22
2019-05-30T03:59:48.018Z,3.22
2019-05-30T04:10:49.740Z,3.23
2019-05-30T04:21:48.829Z,3.23
2019-05-30T04:32:49.933Z,3.23
2019-05-30T04:43:48.016Z,3.24
2019-05-30T04:54:43.596Z,3.25
2019-05-30T05:05:47.429Z,3.25
2019-05-30T05:16:46.796Z,3.26
2019-05-30T05:27:47.116Z,3.27
2019-05-30T05:38:50.921Z,3.27
2019-05-30T05:49:48.129Z,3.26
2019-05-30T06:00:48.443Z,3.27
2019-05-30T06:11:40.625Z,3.27
2019-05-30T06:22:41.674Z,3.28
2019-05-30T06:33:45.216Z,3.28
2019-05-30T06:44:43.711Z,3.29
2019-05-30T06:55:44.907Z,3.29
2019-05-30T07:06:46.421Z,3.29
2019-05-30T07:17:46.668Z,3.32
2019-05-30T07:28:46.648Z,3.33
2019-05-30T07:39:45.661Z,3.38
2019-05-30T07:50:42.225Z,3.42
2019-05-30T08:01:43.146Z,3.36
2019-05-30T08:12:36.299Z,3.37
2019-05-30T08:23:32.736Z,3.39
2019-05-30T08:34:37.006Z,3.38
2019-05-30T08:45:33.658Z,3.39
2019-05-30T08:56:36.561Z,3.39
2019-05-30T09:07:38.413Z,3.39
2019-05-30T09:18:35.191Z,3.39
2019-05-30T09:29:39.672Z,3.39
2019-05-30T09:40:43.655Z,3.39
2019-05-30T09:51:40.634Z,3.39
2019-05-30T10:02:42.974Z,3.40
2019-05-30T10:13:42.425Z,3.38
2019-05-30T10:24:43.054Z,3.38
2019-05-30T10:35:39.503Z,3.38
2019-05-30T10:46:37.216Z,3.38
2019-05-30T10:57:39.712Z,3.39
2019-05-30T11:08:41.263Z,3.39
2019-05-30T11:19:40.812Z,3.39
2019-05-30T11:30:38.179Z,3.39
2019-05-30T11:41:43.428Z,3.39
2019-05-30T11:52:43.552Z,3.39
2019-05-30T12:03:45.967Z,3.38
2019-05-30T12:14:41.196Z,3.39
2019-05-30T12:25:37.606Z,3.39
2019-05-30T12:36:39.950Z,3.39
2019-05-30T12:47:36.432Z,3.39
2019-05-30T12:58:36.733Z,3.39
2019-05-30T13:09:36.633Z,3.39
2019-05-30T13:20:33.574Z,3.38
2019-05-30T13:31:28.532Z,3.39
2019-05-30T13:42:23.335Z,3.39
2019-05-30T13:53:20.838Z,3.39
2019-05-30T14:04:18.771Z,3.39
2019-05-30T14:15:14.199Z,3.39
2019-05-30T14:26:10.032Z,3.39
2019-05-30T14:37:10.894Z,3.39
2019-05-30T14:48:08.638Z,3.39
2019-05-30T14:59:09.005Z,3.39
2019-05-30T15:10:11.042Z,3.39
2019-05-30T15:21:06.288Z,3.39
2019-05-30T15:32:04.284Z,3.40
2019-05-30T15:43:04.079Z,3.42
2019-05-30T15:54:01.059Z,3.41
2019-05-30T16:04:59.225Z,3.39
2019-05-30T16:15:58.661Z,3.43
2019-05-30T16:26:55.218Z,3.43
2019-05-30T16:37:49.822Z,3.42
2019-05-30T16:48:38.734Z,3.42
2019-05-30T16:59:33.712Z,3.41
2019-05-30T17:10:35.795Z,3.41
2019-05-30T17:21:32.908Z,3.39
2019-05-30T17:32:25.893Z,3.39
2019-05-30T17:43:33.892Z,3.35
2019-05-30T17:54:33.736Z,3.38
2019-05-30T18:05:31.317Z,3.37
2019-05-30T18:16:25.167Z,3.36
2019-05-30T18:27:21.709Z,3.36
2019-05-30T18:38:18.321Z,3.36
2019-05-30T18:49:18.879Z,3.35
2019-05-30T19:00:20.942Z,3.34
2019-05-30T19:11:27.282Z,3.34
2019-05-30T19:22:18.048Z,3.34
2019-05-30T19:33:13.905Z,3.33
2019-05-30T19:44:12.485Z,3.33
2019-05-30T19:55:11.282Z,3.33
2019-05-30T20:06:13.974Z,3.33
2019-05-30T20:17:10.787Z,3.32
2019-05-30T20:28:06.046Z,3.32
2019-05-30T20:39:03.989Z,3.32
2019-05-30T20:50:00.293Z,3.31
2019-05-30T21:00:57.458Z,3.31
2019-05-30T21:12:00.669Z,3.29
2019-05-30T21:22:55.537Z,3.30
2019-05-30T21:33:50.104Z,3.30
2019-05-30T21:44:50.616Z,3.30
2019-05-30T21:55:41.616Z,3.29
2019-05-30T22:06:36.797Z,3.29
2019-05-30T22:17:35.236Z,3.29
2019-05-30T22:28:31.923Z,3.29
2019-05-30T22:39:28.067Z,3.29
2019-05-30T22:50:23.426Z,3.29
2019-05-30T23:01:26.238Z,3.28
2019-05-30T23:12:18.214Z,3.28
2019-05-30T23:23:13.135Z,3.28
2019-05-30T23:34:07.323Z,3.28
2019-05-30T23:45:03.639Z,3.27
2019-05-30T23:56:00.631Z,3.27
